createdAt,value
2018-09-05T00:00:49.312Z,0
2018-09-05T00:01:49.875Z,0
2018-09-05T00:02:50.419Z,0
2018-09-05T00:03:50.974Z,0
2018-09-05T00:04:51.531Z,0
2018-09-05T00:05:52.103Z,0
2018-09-05T00:06:52.650Z,0
2018-09-05T00:07:53.205Z,0
2018-09-05T00:08:53.756Z,0
2018-09-05T00:09:54.313Z,0
2018-09-05T00:10:54.868Z,0
2018-09-05T00:11:55.422Z,0
2018-09-05T00:12:55.975Z,0
2018-09-05T00:13:56.522Z,0
2018-09-05T00:14:57.069Z,0
2018-09-05T00:15:57.626Z,0
2018-09-05T00:16:58.178Z,0
2018-09-05T00:17:58.731Z,0
2018-09-05T00:18:59.279Z,0
2018-09-05T00:19:59.833Z,0
2018-09-05T00:21:00.387Z,0
2018-09-05T00:22:00.937Z,0
2018-09-05T00:23:01.497Z,0
2018-09-05T00:24:02.050Z,0
2018-09-05T00:25:02.605Z,0
2018-09-05T00:26:03.157Z,0
2018-09-05T00:27:03.708Z,0
2018-09-05T00:28:04.255Z,0
2018-09-05T00:29:04.803Z,0
2018-09-05T00:30:05.355Z,0
2018-09-05T00:31:05.908Z,0
2018-09-05T00:32:06.461Z,0
2018-09-05T00:33:07.018Z,0
2018-09-05T00:34:07.568Z,0
2018-09-05T00:35:08.123Z,0
2018-09-05T00:36:08.678Z,0
2018-09-05T00:37:09.234Z,0
2018-09-05T00:38:09.785Z,0
2018-09-05T00:39:10.340Z,0
2018-09-05T00:40:10.895Z,0
2018-09-05T00:41:11.448Z,0
2018-09-05T00:42:12.003Z,0
2018-09-05T00:43:12.555Z,0
2018-09-05T00:44:13.104Z,0
2018-09-05T00:45:13.651Z,0
2018-09-05T00:46:14.198Z,0
2018-09-05T00:47:14.745Z,0
2018-09-05T00:48:15.303Z,0
2018-09-05T00:49:15.857Z,0
2018-09-05T00:50:16.414Z,0
2018-09-05T00:51:16.962Z,0
2018-09-05T00:52:17.517Z,0
2018-09-05T00:53:18.073Z,0
2018-09-05T00:54:18.629Z,0
2018-09-05T00:55:19.180Z,0
2018-09-05T00:56:19.733Z,0
2018-09-05T00:57:20.290Z,0
2018-09-05T00:58:20.835Z,0
2018-09-05T00:59:21.393Z,0
2018-09-05T01:00:21.947Z,0
2018-09-05T01:01:22.504Z,0
2018-09-05T01:02:23.059Z,0
2018-09-05T01:03:23.614Z,0
2018-09-05T01:04:24.168Z,0
2018-09-05T01:05:24.726Z,0
2018-09-05T01:06:25.268Z,0
2018-09-05T01:07:25.826Z,0
2018-09-05T01:08:26.380Z,0
2018-09-05T01:09:26.925Z,0
2018-09-05T01:10:27.479Z,0
2018-09-05T01:11:28.035Z,0
2018-09-05T01:12:28.590Z,0
2018-09-05T01:13:29.152Z,0
2018-09-05T01:14:29.695Z,0
2018-09-05T01:15:30.249Z,0
2018-09-05T01:16:30.804Z,0
2018-09-05T01:17:31.356Z,0
2018-09-05T01:18:31.910Z,0
2018-09-05T01:19:32.465Z,0
2018-09-05T01:20:33.019Z,0
2018-09-05T01:21:33.571Z,0
2018-09-05T01:22:34.125Z,0
2018-09-05T01:23:34.676Z,0
2018-09-05T01:24:35.226Z,0
2018-09-05T01:25:35.783Z,0
2018-09-05T01:26:36.335Z,0
2018-09-05T01:27:36.881Z,0
2018-09-05T01:28:37.431Z,0
2018-09-05T01:29:37.988Z,0
2018-09-05T01:30:38.544Z,0
2018-09-05T01:31:39.101Z,0
2018-09-05T01:32:39.651Z,0
2018-09-05T01:33:40.207Z,0
2018-09-05T01:34:40.762Z,0
2018-09-05T01:35:41.314Z,0
2018-09-05T01:36:41.868Z,0
2018-09-05T01:37:42.425Z,0
2018-09-05T01:38:42.978Z,0
2018-09-05T01:39:43.528Z,0
2018-09-05T01:40:44.085Z,0
2018-09-05T01:41:44.641Z,0
2018-09-05T01:42:45.196Z,0
2018-09-05T01:43:45.741Z,0
2018-09-05T01:44:46.297Z,0
2018-09-05T01:45:46.852Z,0
2018-09-05T01:46:47.406Z,0
2018-09-05T01:47:47.961Z,0
2018-09-05T01:48:48.518Z,0
2018-09-05T01:49:49.061Z,0
2018-09-05T01:50:49.623Z,0
2018-09-05T01:51:50.179Z,0
2018-09-05T01:52:50.728Z,0
2018-09-05T01:53:51.285Z,0
2018-09-05T01:54:51.829Z,0
2018-09-05T01:55:52.384Z,0
2018-09-05T01:56:52.940Z,0
2018-09-05T01:57:53.492Z,0
2018-09-05T01:58:54.049Z,0
2018-09-05T01:59:54.603Z,0
2018-09-05T02:00:55.156Z,0
2018-09-05T02:01:55.702Z,0
2018-09-05T02:02:56.252Z,0
2018-09-05T02:03:56.795Z,0
2018-09-05T02:04:57.351Z,0
2018-09-05T02:05:57.907Z,0
2018-09-05T02:06:58.455Z,0
2018-09-05T02:07:59.006Z,0
2018-09-05T02:08:59.561Z,0
2018-09-05T02:10:00.115Z,0
2018-09-05T02:11:00.669Z,0
2018-09-05T02:12:01.226Z,0
2018-09-05T02:13:01.778Z,0
2018-09-05T02:14:02.333Z,0
2018-09-05T02:15:02.887Z,0
2018-09-05T02:16:03.434Z,0
2018-09-05T02:17:03.993Z,0
2018-09-05T02:18:04.549Z,0
2018-09-05T02:19:05.101Z,0
2018-09-05T02:20:05.659Z,0
2018-09-05T02:21:06.215Z,0
2018-09-05T02:22:06.772Z,0
2018-09-05T02:23:07.325Z,0
2018-09-05T02:24:07.880Z,0
2018-09-05T02:25:08.435Z,0
2018-09-05T02:26:08.991Z,0
2018-09-05T02:27:09.540Z,0
2018-09-05T02:28:10.095Z,0
2018-09-05T02:29:10.649Z,0
2018-09-05T02:30:11.197Z,0
2018-09-05T02:31:11.753Z,0
2018-09-05T02:32:12.311Z,0
2018-09-05T02:33:12.858Z,0
2018-09-05T02:34:13.406Z,0
2018-09-05T02:35:13.955Z,0
2018-09-05T02:36:14.512Z,0
2018-09-05T02:37:15.071Z,0
2018-09-05T02:38:15.625Z,0
2018-09-05T02:39:16.178Z,0
2018-09-05T02:40:16.749Z,0
2018-09-05T02:41:17.280Z,0
2018-09-05T02:42:17.826Z,0
2018-09-05T02:43:18.382Z,0
2018-09-05T02:44:18.937Z,0
2018-09-05T02:45:19.489Z,0
2018-09-05T02:46:20.035Z,0
2018-09-05T02:47:20.583Z,0
2018-09-05T02:48:21.140Z,0
2018-09-05T02:49:21.691Z,0
2018-09-05T02:50:22.244Z,0
2018-09-05T02:51:22.801Z,0
2018-09-05T02:52:23.347Z,0
2018-09-05T02:53:23.895Z,0
2018-09-05T02:54:24.449Z,0
2018-09-05T02:55:24.996Z,0
2018-09-05T02:56:25.547Z,0
2018-09-05T02:57:26.102Z,0
2018-09-05T02:58:26.657Z,0
2018-09-05T02:59:27.203Z,0
2018-09-05T03:00:27.758Z,0
2018-09-05T03:01:28.313Z,0
2018-09-05T03:02:28.865Z,0
2018-09-05T03:03:29.420Z,0
2018-09-05T03:04:29.976Z,0
2018-09-05T03:05:30.528Z,0
2018-09-05T03:06:31.085Z,0
2018-09-05T03:07:31.635Z,0
2018-09-05T03:08:32.188Z,0
2018-09-05T03:09:32.735Z,0
2018-09-05T03:10:33.282Z,0
2018-09-05T03:11:33.835Z,0
2018-09-05T03:12:34.384Z,0
2018-09-05T03:13:34.936Z,0
2018-09-05T03:14:35.494Z,0
2018-09-05T03:15:36.042Z,0
2018-09-05T03:16:36.597Z,0
2018-09-05T03:17:37.153Z,0
2018-09-05T03:18:37.706Z,0
2018-09-05T03:19:38.254Z,0
2018-09-05T03:20:38.808Z,0
2018-09-05T03:21:39.364Z,0
2018-09-05T03:22:39.907Z,0
2018-09-05T03:23:40.460Z,0
2018-09-05T03:24:41.016Z,0
2018-09-05T03:25:41.573Z,0
2018-09-05T03:26:42.124Z,0
2018-09-05T03:27:42.681Z,0
2018-09-05T03:28:43.252Z,0
2018-09-05T03:29:43.785Z,0
2018-09-05T03:30:44.338Z,0
2018-09-05T03:31:44.891Z,0
2018-09-05T03:32:45.482Z,0
2018-09-05T03:33:45.992Z,0
2018-09-05T03:34:46.539Z,0
2018-09-05T03:35:47.089Z,0
2018-09-05T03:36:47.637Z,0
2018-09-05T03:37:48.186Z,0
2018-09-05T03:38:48.739Z,0
2018-09-05T03:39:49.290Z,0
2018-09-05T03:40:49.844Z,0
2018-09-05T03:41:50.399Z,0
2018-09-05T03:42:50.946Z,0
2018-09-05T03:43:51.502Z,0
2018-09-05T03:44:52.049Z,0
2018-09-05T03:45:52.605Z,0
2018-09-05T03:46:53.159Z,0
2018-09-05T03:47:53.711Z,0
2018-09-05T03:48:54.256Z,0
2018-09-05T03:49:54.896Z,0
2018-09-05T03:50:55.360Z,0
2018-09-05T03:51:55.927Z,0
2018-09-05T03:52:56.461Z,0
2018-09-05T03:53:57.015Z,0
2018-09-05T03:54:57.569Z,0
2018-09-05T03:55:58.130Z,0
2018-09-05T03:56:58.679Z,0
2018-09-05T03:57:59.232Z,0
2018-09-05T03:58:59.787Z,0
2018-09-05T04:00:00.340Z,0
2018-09-05T04:01:00.892Z,0
2018-09-05T04:02:01.448Z,0
2018-09-05T04:03:02.003Z,0
2018-09-05T04:04:02.556Z,0
2018-09-05T04:05:03.119Z,0
2018-09-05T04:06:03.942Z,0
2018-09-05T04:07:04.504Z,0
2018-09-05T04:08:05.061Z,0
2018-09-05T04:09:05.628Z,0
2018-09-05T04:10:06.191Z,0
2018-09-05T04:11:06.744Z,0
2018-09-05T04:12:07.303Z,0
2018-09-05T04:13:07.863Z,0
2018-09-05T04:14:08.407Z,0
2018-09-05T04:15:08.968Z,0
2018-09-05T04:16:09.512Z,0
2018-09-05T04:17:10.073Z,0
2018-09-05T04:18:10.625Z,0
2018-09-05T04:19:11.177Z,0
2018-09-05T04:20:11.734Z,0
2018-09-05T04:21:12.288Z,0
2018-09-05T04:22:12.922Z,0
2018-09-05T04:23:13.386Z,0
2018-09-05T04:24:13.941Z,0
2018-09-05T04:25:14.500Z,0
2018-09-05T04:26:15.057Z,0
2018-09-05T04:27:15.612Z,0
2018-09-05T04:28:16.163Z,0
2018-09-05T04:29:16.757Z,0
2018-09-05T04:30:17.267Z,0
2018-09-05T04:31:17.817Z,0
2018-09-05T04:32:18.398Z,0
2018-09-05T04:33:18.952Z,0
2018-09-05T04:34:19.505Z,0
2018-09-05T04:35:20.054Z,0
2018-09-05T04:36:20.608Z,0
2018-09-05T04:37:21.154Z,0
2018-09-05T04:38:21.709Z,0
2018-09-05T04:39:22.269Z,0
2018-09-05T04:40:22.826Z,0
2018-09-05T04:41:23.380Z,0
2018-09-05T04:42:23.928Z,0
2018-09-05T04:43:24.487Z,0
2018-09-05T04:44:25.042Z,0
2018-09-05T04:45:25.590Z,0
2018-09-05T04:46:26.147Z,0
2018-09-05T04:47:26.702Z,0
2018-09-05T04:48:27.259Z,0
2018-09-05T04:49:27.816Z,0
2018-09-05T04:50:28.370Z,0
2018-09-05T04:51:28.944Z,0
2018-09-05T04:52:29.650Z,0
2018-09-05T04:53:30.179Z,0
2018-09-05T04:54:30.749Z,0
2018-09-05T04:55:31.310Z,0
2018-09-05T04:56:31.874Z,0
2018-09-05T04:57:32.425Z,5
2018-09-05T04:58:33.008Z,5
2018-09-05T04:59:33.534Z,5
2018-09-05T05:00:34.088Z,5
2018-09-05T05:01:34.649Z,5
2018-09-05T05:02:35.209Z,5
2018-09-05T05:03:35.776Z,5
2018-09-05T05:04:36.373Z,5
2018-09-05T05:05:36.891Z,5
2018-09-05T05:06:37.438Z,10
2018-09-05T05:07:37.995Z,10
2018-09-05T05:08:38.552Z,10
2018-09-05T05:09:39.117Z,10
2018-09-05T05:10:39.668Z,10
2018-09-05T05:11:40.228Z,10
2018-09-05T05:12:40.870Z,10
2018-09-05T05:13:41.345Z,10
2018-09-05T05:14:41.905Z,10
2018-09-05T05:15:42.465Z,10
2018-09-05T05:16:43.016Z,10
2018-09-05T05:17:43.574Z,15
2018-09-05T05:18:44.133Z,15
2018-09-05T05:19:44.692Z,15
2018-09-05T05:20:45.269Z,15
2018-09-05T05:21:45.813Z,15
2018-09-05T05:22:46.368Z,20
2018-09-05T05:23:46.926Z,20
2018-09-05T05:24:47.483Z,20
2018-09-05T05:25:48.041Z,20
2018-09-05T05:26:48.606Z,20
2018-09-05T05:27:49.148Z,20
2018-09-05T05:28:49.708Z,20
2018-09-05T05:29:50.262Z,20
2018-09-05T05:30:50.824Z,20
2018-09-05T05:31:51.374Z,20
2018-09-05T05:32:51.937Z,20
2018-09-05T05:33:52.489Z,20
2018-09-05T05:34:53.048Z,25
2018-09-05T05:35:53.609Z,25
2018-09-05T05:36:54.167Z,25
2018-09-05T05:37:54.723Z,25
2018-09-05T05:38:55.284Z,25
2018-09-05T05:39:55.840Z,30
2018-09-05T05:40:56.397Z,30
2018-09-05T05:41:56.956Z,30
2018-09-05T05:42:57.509Z,30
2018-09-05T05:43:58.113Z,35
2018-09-05T05:44:58.672Z,35
2018-09-05T05:45:59.228Z,35
2018-09-05T05:46:59.794Z,35
2018-09-05T05:48:00.349Z,40
2018-09-05T05:49:00.910Z,40
2018-09-05T05:50:01.466Z,45
2018-09-05T05:51:02.019Z,45
2018-09-05T05:52:02.574Z,45
2018-09-05T05:53:03.219Z,45
2018-09-05T05:54:03.686Z,50
2018-09-05T05:55:04.258Z,50
2018-09-05T05:56:04.808Z,55
2018-09-05T05:57:05.370Z,60
2018-09-05T05:58:05.925Z,60
2018-09-05T05:59:06.488Z,65
2018-09-05T06:00:07.052Z,65
2018-09-05T06:01:07.643Z,70
2018-09-05T06:02:08.172Z,70
2018-09-05T06:03:08.731Z,75
2018-09-05T06:04:09.298Z,75
2018-09-05T06:05:09.853Z,80
2018-09-05T06:06:10.520Z,85
2018-09-05T06:07:10.988Z,85
2018-09-05T06:08:11.542Z,90
2018-09-05T06:09:12.101Z,95
2018-09-05T06:10:12.662Z,100
2018-09-05T06:11:13.230Z,100
2018-09-05T06:12:13.810Z,100
2018-09-05T06:13:14.351Z,105
2018-09-05T06:14:14.901Z,105
2018-09-05T06:15:15.455Z,105
2018-09-05T06:16:16.013Z,105
2018-09-05T06:17:16.570Z,110
2018-09-05T06:18:17.131Z,110
2018-09-05T06:19:17.696Z,115
2018-09-05T06:20:18.253Z,115
2018-09-05T06:21:18.811Z,115
2018-09-05T06:22:19.365Z,120
2018-09-05T06:23:19.929Z,125
2018-09-05T06:24:20.489Z,125
2018-09-05T06:25:21.056Z,125
2018-09-05T06:26:21.604Z,125
2018-09-05T06:27:22.163Z,125
2018-09-05T06:28:22.715Z,130
2018-09-05T06:29:23.273Z,130
2018-09-05T06:30:23.948Z,130
2018-09-05T06:31:24.376Z,135
2018-09-05T06:32:24.930Z,135
2018-09-05T06:33:25.483Z,140
2018-09-05T06:34:26.045Z,140
2018-09-05T06:35:26.613Z,140
2018-09-05T06:36:27.182Z,135
2018-09-05T06:37:27.898Z,135
2018-09-05T06:38:28.441Z,135
2018-09-05T06:39:29.003Z,130
2018-09-05T06:40:29.562Z,130
2018-09-05T06:41:30.125Z,130
2018-09-05T06:42:30.685Z,130
2018-09-05T06:43:31.244Z,135
2018-09-05T06:44:31.807Z,135
2018-09-05T06:45:32.445Z,140
2018-09-05T06:46:32.927Z,140
2018-09-05T06:47:33.489Z,140
2018-09-05T06:48:34.049Z,145
2018-09-05T06:49:34.609Z,150
2018-09-05T06:50:35.172Z,155
2018-09-05T06:51:35.739Z,165
2018-09-05T06:52:36.297Z,170
2018-09-05T06:53:36.858Z,180
2018-09-05T06:54:37.416Z,190
2018-09-05T06:55:37.973Z,200
2018-09-05T06:56:38.540Z,210
2018-09-05T06:57:39.100Z,220
2018-09-05T06:58:39.655Z,230
2018-09-05T06:59:40.219Z,235
2018-09-05T07:00:40.787Z,250
2018-09-05T07:01:41.346Z,270
2018-09-05T07:02:41.908Z,285
2018-09-05T07:03:42.527Z,295
2018-09-05T07:04:43.027Z,310
2018-09-05T07:05:43.603Z,325
2018-09-05T07:06:44.168Z,340
2018-09-05T07:07:44.725Z,355
2018-09-05T07:08:45.284Z,360
2018-09-05T07:09:45.844Z,370
2018-09-05T07:10:46.408Z,375
2018-09-05T07:11:46.971Z,375
2018-09-05T07:12:47.535Z,380
2018-09-05T07:13:48.100Z,380
2018-09-05T07:14:48.663Z,380
2018-09-05T07:15:49.220Z,385
2018-09-05T07:16:49.776Z,385
2018-09-05T07:17:50.343Z,395
2018-09-05T07:18:50.907Z,395
2018-09-05T07:19:51.471Z,400
2018-09-05T07:20:52.034Z,405
2018-09-05T07:21:52.616Z,405
2018-09-05T07:22:53.189Z,405
2018-09-05T07:23:53.704Z,405
2018-09-05T07:24:54.281Z,395
2018-09-05T07:25:54.820Z,395
2018-09-05T07:26:55.383Z,395
2018-09-05T07:27:55.945Z,395
2018-09-05T07:28:56.502Z,395
2018-09-05T07:29:57.070Z,395
2018-09-05T07:30:57.686Z,400
2018-09-05T07:31:58.232Z,395
2018-09-05T07:32:58.763Z,400
2018-09-05T07:33:59.320Z,410
2018-09-05T07:34:59.886Z,420
2018-09-05T07:36:00.440Z,425
2018-09-05T07:37:01.006Z,430
2018-09-05T07:38:01.570Z,435
2018-09-05T07:39:02.152Z,440
2018-09-05T07:40:02.707Z,445
2018-09-05T07:41:03.271Z,445
2018-09-05T07:42:03.838Z,460
2018-09-05T07:43:04.402Z,500
2018-09-05T07:44:05.019Z,480
2018-09-05T07:45:05.583Z,480
2018-09-05T07:46:06.146Z,490
2018-09-05T07:47:06.703Z,480
2018-09-05T07:48:07.317Z,485
2018-09-05T07:49:07.886Z,525
2018-09-05T07:50:08.447Z,690
2018-09-05T07:51:09.097Z,565
2018-09-05T07:52:09.577Z,570
2018-09-05T07:53:10.142Z,615
2018-09-05T07:54:10.704Z,525
2018-09-05T07:55:11.269Z,520
2018-09-05T07:56:11.853Z,520
2018-09-05T07:57:12.710Z,530
2018-09-05T07:58:13.171Z,535
2018-09-05T07:59:13.732Z,535
2018-09-05T08:00:14.300Z,540
2018-09-05T08:01:14.861Z,540
2018-09-05T08:02:15.430Z,550
2018-09-05T08:03:15.994Z,550
2018-09-05T08:04:16.566Z,545
2018-09-05T08:05:17.137Z,545
2018-09-05T08:06:17.704Z,545
2018-09-05T08:07:18.268Z,540
2018-09-05T08:08:18.828Z,535
2018-09-05T08:09:19.389Z,530
2018-09-05T08:10:19.948Z,525
2018-09-05T08:11:20.521Z,525
2018-09-05T08:12:21.089Z,525
2018-09-05T08:13:21.654Z,520
2018-09-05T08:14:22.224Z,525
2018-09-05T08:15:22.787Z,520
2018-09-05T08:16:23.353Z,520
2018-09-05T08:17:23.928Z,515
2018-09-05T08:18:24.482Z,515
2018-09-05T08:19:25.053Z,515
2018-09-05T08:20:25.622Z,510
2018-09-05T08:21:26.185Z,515
2018-09-05T08:22:26.755Z,510
2018-09-05T08:23:27.311Z,510
2018-09-05T08:24:27.905Z,510
2018-09-05T08:25:28.440Z,510
2018-09-05T08:26:29.012Z,515
2018-09-05T08:27:29.591Z,515
2018-09-05T08:28:30.143Z,520
2018-09-05T08:29:30.709Z,525
2018-09-05T08:30:31.276Z,535
2018-09-05T08:31:31.840Z,545
2018-09-05T08:32:32.408Z,555
2018-09-05T08:33:32.976Z,565
2018-09-05T08:34:33.542Z,575
2018-09-05T08:35:34.329Z,595
2018-09-05T08:36:34.840Z,615
2018-09-05T08:37:35.357Z,665
2018-09-05T08:38:36.013Z,650
2018-09-05T08:39:36.406Z,655
2018-09-05T08:40:36.971Z,660
2018-09-05T08:41:37.545Z,670
2018-09-05T08:42:38.108Z,685
2018-09-05T08:43:38.680Z,700
2018-09-05T08:44:39.360Z,710
2018-09-05T08:45:40.279Z,720
2018-09-05T08:46:40.426Z,730
2018-09-05T08:47:41.012Z,745
2018-09-05T08:48:41.590Z,750
2018-09-05T08:49:42.118Z,755
2018-09-05T08:50:42.731Z,760
2018-09-05T08:51:43.290Z,765
2018-09-05T08:52:44.434Z,775
2018-09-05T08:53:44.995Z,785
2018-09-05T08:54:45.564Z,800
2018-09-05T08:55:46.195Z,825
2018-09-05T08:56:46.700Z,905
2018-09-05T08:57:47.270Z,995
2018-09-05T08:58:47.902Z,955
2018-09-05T08:59:48.409Z,950
2018-09-05T09:00:48.988Z,1010
2018-09-05T09:01:49.596Z,1025
2018-09-05T09:02:50.166Z,1140
2018-09-05T09:03:50.735Z,1180
2018-09-05T09:04:51.360Z,1090
2018-09-05T09:05:51.880Z,1350
2018-09-05T09:06:52.499Z,1360
2018-09-05T09:07:53.076Z,1670
2018-09-05T09:08:53.643Z,1315
2018-09-05T09:09:54.217Z,1455
2018-09-05T09:10:54.791Z,1465
2018-09-05T09:11:55.368Z,1840
2018-09-05T09:12:55.940Z,1695
2018-09-05T09:13:56.512Z,1430
2018-09-05T09:14:57.091Z,1320
2018-09-05T09:15:57.663Z,1420
2018-09-05T09:16:58.236Z,1715
2018-09-05T09:17:58.809Z,1465
2018-09-05T09:18:59.383Z,1575
2018-09-05T09:19:59.959Z,1880
2018-09-05T09:21:00.521Z,1770
2018-09-05T09:22:01.097Z,1670
2018-09-05T09:23:01.669Z,1985
2018-09-05T09:24:02.243Z,1465
2018-09-05T09:25:02.824Z,1275
2018-09-05T09:26:03.396Z,1160
2018-09-05T09:27:03.972Z,1120
2018-09-05T09:28:04.665Z,1105
2018-09-05T09:29:05.105Z,1115
2018-09-05T09:30:05.678Z,1065
2018-09-05T09:31:06.253Z,1070
2018-09-05T09:32:06.817Z,1200
2018-09-05T09:33:07.390Z,1255
2018-09-05T09:34:07.957Z,1030
2018-09-05T09:35:08.526Z,1020
2018-09-05T09:36:09.096Z,1020
2018-09-05T09:37:09.671Z,1070
2018-09-05T09:38:10.432Z,1050
2018-09-05T09:39:11.003Z,1060
2018-09-05T09:40:11.578Z,1075
2018-09-05T09:41:12.155Z,1055
2018-09-05T09:42:12.719Z,1040
2018-09-05T09:43:13.488Z,1050
2018-09-05T09:44:14.063Z,1015
2018-09-05T09:45:14.637Z,1000
2018-09-05T09:46:15.226Z,995
2018-09-05T09:47:15.785Z,1005
2018-09-05T09:48:16.350Z,1015
2018-09-05T09:49:16.921Z,985
2018-09-05T09:50:17.490Z,965
2018-09-05T09:51:18.063Z,950
2018-09-05T09:52:18.631Z,940
2018-09-05T09:53:19.204Z,940
2018-09-05T09:54:19.774Z,945
2018-09-05T09:55:20.342Z,930
2018-09-05T09:56:20.917Z,920
2018-09-05T09:57:21.488Z,920
2018-09-05T09:58:22.053Z,935
2018-09-05T09:59:22.624Z,920
2018-09-05T10:00:23.198Z,925
2018-09-05T10:01:23.751Z,940
2018-09-05T10:02:24.323Z,945
2018-09-05T10:03:25.064Z,955
2018-09-05T10:04:25.509Z,970
2018-09-05T10:05:26.073Z,1010
2018-09-05T10:06:26.642Z,1015
2018-09-05T10:07:27.213Z,1010
2018-09-05T10:08:27.789Z,1020
2018-09-05T10:09:28.347Z,1065
2018-09-05T10:10:28.927Z,1070
2018-09-05T10:11:29.488Z,1065
2018-09-05T10:12:30.058Z,1060
2018-09-05T10:13:30.637Z,1065
2018-09-05T10:14:31.205Z,1080
2018-09-05T10:15:31.775Z,1115
2018-09-05T10:16:32.349Z,1115
2018-09-05T10:17:32.925Z,1110
2018-09-05T10:18:33.493Z,1115
2018-09-05T10:19:34.063Z,1130
2018-09-05T10:20:34.634Z,1125
2018-09-05T10:21:35.206Z,1120
2018-09-05T10:22:35.837Z,1130
2018-09-05T10:23:36.343Z,1160
2018-09-05T10:24:36.906Z,1190
2018-09-05T10:25:37.500Z,1265
2018-09-05T10:26:38.054Z,1300
2018-09-05T10:27:38.626Z,1285
2018-09-05T10:28:39.204Z,1290
2018-09-05T10:29:39.773Z,1330
2018-09-05T10:30:40.344Z,1460
2018-09-05T10:31:40.975Z,1635
2018-09-05T10:32:41.503Z,1970
2018-09-05T10:33:42.056Z,1505
2018-09-05T10:34:42.623Z,1375
2018-09-05T10:35:43.277Z,1330
2018-09-05T10:36:43.848Z,1425
2018-09-05T10:37:44.414Z,1615
2018-09-05T10:38:44.992Z,1380
2018-09-05T10:39:45.570Z,1245
2018-09-05T10:40:46.134Z,1170
2018-09-05T10:41:46.705Z,1135
2018-09-05T10:42:47.290Z,1110
2018-09-05T10:43:47.855Z,1090
2018-09-05T10:44:48.427Z,1080
2018-09-05T10:45:48.999Z,1080
2018-09-05T10:46:49.576Z,1080
2018-09-05T10:47:50.139Z,1120
2018-09-05T10:48:50.710Z,1320
2018-09-05T10:49:51.285Z,1250
2018-09-05T10:50:51.857Z,1230
2018-09-05T10:51:52.688Z,1450
2018-09-05T10:52:53.158Z,1360
2018-09-05T10:53:53.725Z,1435
2018-09-05T10:54:54.292Z,1745
2018-09-05T10:55:54.866Z,2645
2018-09-05T10:56:55.439Z,2415
2018-09-05T10:57:56.054Z,2875
2018-09-05T10:58:56.584Z,2465
2018-09-05T10:59:57.149Z,2775
2018-09-05T11:00:57.726Z,2830
2018-09-05T11:01:58.303Z,2775
2018-09-05T11:02:58.876Z,1850
2018-09-05T11:03:59.455Z,2020
2018-09-05T11:05:00.048Z,1875
2018-09-05T11:06:00.626Z,1780
2018-09-05T11:07:01.197Z,1730
2018-09-05T11:08:01.773Z,1730
2018-09-05T11:09:02.348Z,1580
2018-09-05T11:10:02.924Z,1130
2018-09-05T11:11:03.505Z,1000
2018-09-05T11:12:04.076Z,940
2018-09-05T11:13:04.646Z,910
2018-09-05T11:14:05.228Z,895
2018-09-05T11:15:05.795Z,905
2018-09-05T11:16:06.359Z,905
2018-09-05T11:17:06.936Z,930
2018-09-05T11:18:07.507Z,970
2018-09-05T11:19:08.077Z,1030
2018-09-05T11:20:08.656Z,1090
2018-09-05T11:21:09.271Z,1280
2018-09-05T11:22:09.800Z,1510
2018-09-05T11:23:10.364Z,1130
2018-09-05T11:24:10.941Z,1135
2018-09-05T11:25:11.522Z,1165
2018-09-05T11:26:12.081Z,1220
2018-09-05T11:27:12.664Z,1370
2018-09-05T11:28:13.230Z,1795
2018-09-05T11:29:13.811Z,2355
2018-09-05T11:30:14.393Z,2085
2018-09-05T11:31:14.957Z,2090
2018-09-05T11:32:15.528Z,1605
2018-09-05T11:33:16.103Z,2480
2018-09-05T11:34:16.679Z,2410
2018-09-05T11:35:17.254Z,1935
2018-09-05T11:36:17.827Z,2550
2018-09-05T11:37:18.404Z,2015
2018-09-05T11:38:18.991Z,1990
2018-09-05T11:39:19.564Z,1540
2018-09-05T11:40:20.142Z,1310
2018-09-05T11:41:20.723Z,1260
2018-09-05T11:42:21.290Z,1270
2018-09-05T11:43:21.867Z,1915
2018-09-05T11:44:22.444Z,2490
2018-09-05T11:45:23.019Z,1790
2018-09-05T11:46:23.602Z,1940
2018-09-05T11:47:24.168Z,1950
2018-09-05T11:48:24.745Z,2210
2018-09-05T11:49:25.325Z,2330
2018-09-05T11:50:25.899Z,2400
2018-09-05T11:51:26.473Z,2040
2018-09-05T11:52:27.047Z,2435
2018-09-05T11:53:27.618Z,2185
2018-09-05T11:54:28.187Z,1900
2018-09-05T11:55:28.762Z,1315
2018-09-05T11:56:29.340Z,1115
2018-09-05T11:57:29.907Z,985
2018-09-05T11:58:30.472Z,925
2018-09-05T11:59:31.046Z,895
2018-09-05T12:00:31.619Z,900
2018-09-05T12:01:32.199Z,950
2018-09-05T12:02:32.763Z,980
2018-09-05T12:03:33.328Z,990
2018-09-05T12:04:33.916Z,1035
2018-09-05T12:05:34.502Z,1295
2018-09-05T12:06:35.072Z,1330
2018-09-05T12:07:35.705Z,1175
2018-09-05T12:08:36.231Z,1355
2018-09-05T12:09:36.809Z,1655
2018-09-05T12:10:37.385Z,1565
2018-09-05T12:11:38.006Z,1865
2018-09-05T12:12:38.551Z,1405
2018-09-05T12:13:39.121Z,1900
2018-09-05T12:14:39.727Z,1800
2018-09-05T12:15:40.332Z,2460
2018-09-05T12:16:40.921Z,1915
2018-09-05T12:17:41.528Z,2175
2018-09-05T12:18:42.103Z,1630
2018-09-05T12:19:42.693Z,1695
2018-09-05T12:20:43.254Z,1790
2018-09-05T12:21:43.832Z,1565
2018-09-05T12:22:44.400Z,1280
2018-09-05T12:23:44.970Z,1610
2018-09-05T12:24:45.551Z,2275
2018-09-05T12:25:46.125Z,1855
2018-09-05T12:26:46.715Z,2440
2018-09-05T12:27:47.279Z,2485
2018-09-05T12:28:47.866Z,1775
2018-09-05T12:29:48.446Z,1835
2018-09-05T12:30:49.020Z,2490
2018-09-05T12:31:49.595Z,2190
2018-09-05T12:32:50.172Z,2650
2018-09-05T12:33:50.766Z,2370
2018-09-05T12:34:51.364Z,1865
2018-09-05T12:35:51.933Z,2025
2018-09-05T12:36:52.517Z,2445
2018-09-05T12:37:53.095Z,1590
2018-09-05T12:38:53.669Z,1780
2018-09-05T12:39:54.240Z,1250
2018-09-05T12:40:54.805Z,1165
2018-09-05T12:41:55.381Z,1170
2018-09-05T12:42:55.956Z,1420
2018-09-05T12:43:56.528Z,1315
2018-09-05T12:44:57.102Z,1185
2018-09-05T12:45:57.675Z,1285
2018-09-05T12:46:58.253Z,1160
2018-09-05T12:47:58.828Z,1150
2018-09-05T12:48:59.401Z,1170
2018-09-05T12:50:00.036Z,1180
2018-09-05T12:51:00.612Z,1150
2018-09-05T12:52:01.345Z,1185
2018-09-05T12:53:01.916Z,1130
2018-09-05T12:54:02.485Z,1115
2018-09-05T12:55:03.064Z,1090
2018-09-05T12:56:03.630Z,930
2018-09-05T12:57:04.206Z,855
2018-09-05T12:58:04.776Z,845
2018-09-05T12:59:05.359Z,915
2018-09-05T13:00:05.939Z,945
2018-09-05T13:01:07.503Z,960
2018-09-05T13:02:08.071Z,1045
2018-09-05T13:03:08.647Z,1100
2018-09-05T13:04:09.222Z,1175
2018-09-05T13:05:09.863Z,1185
2018-09-05T13:06:10.369Z,1470
2018-09-05T13:07:10.939Z,1765
2018-09-05T13:08:11.513Z,1875
2018-09-05T13:09:12.087Z,1220
2018-09-05T13:10:12.661Z,1330
2018-09-05T13:11:13.268Z,1480
2018-09-05T13:12:13.814Z,1885
2018-09-05T13:13:14.394Z,2020
2018-09-05T13:14:14.967Z,1920
2018-09-05T13:15:15.541Z,2020
2018-09-05T13:16:16.121Z,2025
2018-09-05T13:17:16.688Z,1440
2018-09-05T13:18:17.262Z,1470
2018-09-05T13:19:17.827Z,1595
2018-09-05T13:20:18.400Z,2000
2018-09-05T13:21:19.018Z,1880
2018-09-05T13:22:19.656Z,1420
2018-09-05T13:23:20.208Z,950
2018-09-05T13:24:20.823Z,1475
2018-09-05T13:25:21.359Z,1150
2018-09-05T13:26:21.935Z,2060
2018-09-05T13:27:22.511Z,1445
2018-09-05T13:28:23.083Z,1950
2018-09-05T13:29:23.654Z,985
2018-09-05T13:30:24.223Z,1070
2018-09-05T13:31:24.802Z,840
2018-09-05T13:32:25.376Z,865
2018-09-05T13:33:25.941Z,1300
2018-09-05T13:34:26.521Z,885
2018-09-05T13:35:27.092Z,805
2018-09-05T13:36:27.670Z,925
2018-09-05T13:37:28.243Z,1460
2018-09-05T13:38:28.820Z,1095
2018-09-05T13:39:29.396Z,1435
2018-09-05T13:40:29.964Z,1575
2018-09-05T13:41:30.531Z,1300
2018-09-05T13:42:31.101Z,1775
2018-09-05T13:43:31.669Z,1970
2018-09-05T13:44:32.240Z,1775
2018-09-05T13:45:32.813Z,1855
2018-09-05T13:46:33.382Z,1660
2018-09-05T13:47:33.955Z,1610
2018-09-05T13:48:34.532Z,1505
2018-09-05T13:49:35.103Z,1820
2018-09-05T13:50:35.678Z,1855
2018-09-05T13:51:36.250Z,1680
2018-09-05T13:52:36.824Z,1510
2018-09-05T13:53:37.395Z,965
2018-09-05T13:54:37.967Z,835
2018-09-05T13:55:38.540Z,780
2018-09-05T13:56:39.120Z,755
2018-09-05T13:57:39.694Z,735
2018-09-05T13:58:40.258Z,715
2018-09-05T13:59:40.831Z,670
2018-09-05T14:00:41.397Z,635
2018-09-05T14:01:42.366Z,600
2018-09-05T14:02:42.994Z,585
2018-09-05T14:03:43.508Z,585
2018-09-05T14:04:44.080Z,575
2018-09-05T14:05:44.658Z,560
2018-09-05T14:06:45.232Z,550
2018-09-05T14:07:45.808Z,550
2018-09-05T14:08:46.378Z,550